sensor_id;sensor_type;location;lat;lon;timestamp;P1;durP1;ratioP1;P2;durP2;ratioP2
10277;SDS011;5184;51.376;7.148;2024-02-26T00:01:18;2.40;;;1.97;;
10277;SDS011;5184;51.376;7.148;2024-02-26T00:03:45;2.03;;;1.70;;
10277;SDS011;5184;51.376;7.148;2024-02-26T00:06:11;2.53;;;1.77;;
10277;SDS011;5184;51.376;7.148;2024-02-26T00:08:39;4.30;;;1.90;;
10277;SDS011;5184;51.376;7.148;2024-02-26T00:11:06;2.47;;;1.93;;
10277;SDS011;5184;51.376;7.148;2024-02-26T00:13:33;2.23;;;1.80;;
10277;SDS011;5184;51.376;7.148;2024-02-26T00:16:01;2.67;;;1.80;;
10277;SDS011;5184;51.376;7.148;2024-02-26T00:18:28;1.80;;;1.67;;
10277;SDS011;5184;51.376;7.148;2024-02-26T00:20:55;3.30;;;1.70;;
10277;SDS011;5184;51.376;7.148;2024-02-26T00:23:23;2.30;;;2.00;;
10277;SDS011;5184;51.376;7.148;2024-02-26T00:25:50;2.33;;;2.00;;
10277;SDS011;5184;51.376;7.148;2024-02-26T00:28:17;2.03;;;1.83;;
10277;SDS011;5184;51.376;7.148;2024-02-26T00:30:43;3.73;;;2.00;;
10277;SDS011;5184;51.376;7.148;2024-02-26T00:33:10;2.57;;;2.13;;
10277;SDS011;5184;51.376;7.148;2024-02-26T00:35:36;2.20;;;1.70;;
10277;SDS011;5184;51.376;7.148;2024-02-26T00:38:03;3.20;;;2.10;;
10277;SDS011;5184;51.376;7.148;2024-02-26T00:40:30;2.23;;;1.80;;
10277;SDS011;5184;51.376;7.148;2024-02-26T00:42:56;2.50;;;2.10;;
10277;SDS011;5184;51.376;7.148;2024-02-26T00:45:23;4.13;;;1.90;;
10277;SDS011;5184;51.376;7.148;2024-02-26T00:47:50;3.03;;;2.37;;
10277;SDS011;5184;51.376;7.148;2024-02-26T00:50:18;2.60;;;2.13;;
10277;SDS011;5184;51.376;7.148;2024-02-26T00:52:45;3.00;;;1.97;;
10277;SDS011;5184;51.376;7.148;2024-02-26T00:55:12;2.93;;;1.93;;
10277;SDS011;5184;51.376;7.148;2024-02-26T00:57:40;3.20;;;2.20;;
10277;SDS011;5184;51.376;7.148;2024-02-26T01:00:07;2.77;;;1.87;;
10277;SDS011;5184;51.376;7.148;2024-02-26T01:02:35;2.60;;;1.90;;
10277;SDS011;5184;51.376;7.148;2024-02-26T01:05:01;2.10;;;1.80;;
10277;SDS011;5184;51.376;7.148;2024-02-26T01:07:28;2.20;;;1.90;;
10277;SDS011;5184;51.376;7.148;2024-02-26T01:09:54;2.30;;;1.80;;
10277;SDS011;5184;51.376;7.148;2024-02-26T01:12:22;2.57;;;1.70;;
10277;SDS011;5184;51.376;7.148;2024-02-26T01:14:49;2.63;;;1.83;;
10277;SDS011;5184;51.376;7.148;2024-02-26T01:17:16;3.20;;;1.90;;
10277;SDS011;5184;51.376;7.148;2024-02-26T01:19:44;2.00;;;1.80;;
10277;SDS011;5184;51.376;7.148;2024-02-26T01:22:11;2.73;;;1.63;;
10277;SDS011;5184;51.376;7.148;2024-02-26T01:24:38;3.77;;;1.93;;
10277;SDS011;5184;51.376;7.148;2024-02-26T01:27:06;2.43;;;1.90;;
10277;SDS011;5184;51.376;7.148;2024-02-26T01:29:32;2.33;;;1.67;;
10277;SDS011;5184;51.376;7.148;2024-02-26T01:31:59;3.23;;;1.83;;
10277;SDS011;5184;51.376;7.148;2024-02-26T01:34:26;1.63;;;1.30;;
10277;SDS011;5184;51.376;7.148;2024-02-26T01:36:52;1.93;;;1.43;;
10277;SDS011;5184;51.376;7.148;2024-02-26T01:39:19;1.70;;;1.37;;
10277;SDS011;5184;51.376;7.148;2024-02-26T01:41:45;2.67;;;1.40;;
10277;SDS011;5184;51.376;7.148;2024-02-26T01:44:12;2.57;;;1.60;;
10277;SDS011;5184;51.376;7.148;2024-02-26T01:46:39;2.63;;;1.57;;
10277;SDS011;5184;51.376;7.148;2024-02-26T01:49:05;2.07;;;1.43;;
10277;SDS011;5184;51.376;7.148;2024-02-26T01:51:33;1.77;;;1.50;;
10277;SDS011;5184;51.376;7.148;2024-02-26T01:54:00;2.13;;;1.20;;
10277;SDS011;5184;51.376;7.148;2024-02-26T01:56:26;1.73;;;1.40;;
10277;SDS011;5184;51.376;7.148;2024-02-26T01:58:53;2.13;;;1.50;;
10277;SDS011;5184;51.376;7.148;2024-02-26T02:01:20;1.53;;;1.40;;
10277;SDS011;5184;51.376;7.148;2024-02-26T02:03:46;3.07;;;1.47;;
10277;SDS011;5184;51.376;7.148;2024-02-26T02:06:13;1.40;;;1.30;;
10277;SDS011;5184;51.376;7.148;2024-02-26T02:08:40;3.00;;;1.53;;
10277;SDS011;5184;51.376;7.148;2024-02-26T02:11:07;1.90;;;1.20;;
10277;SDS011;5184;51.376;7.148;2024-02-26T02:13:35;2.80;;;1.30;;
10277;SDS011;5184;51.376;7.148;2024-02-26T02:16:02;2.07;;;1.47;;
10277;SDS011;5184;51.376;7.148;2024-02-26T02:18:29;2.37;;;1.40;;
10277;SDS011;5184;51.376;7.148;2024-02-26T02:20:56;1.87;;;1.40;;
10277;SDS011;5184;51.376;7.148;2024-02-26T02:23:22;1.60;;;1.50;;
10277;SDS011;5184;51.376;7.148;2024-02-26T02:25:50;1.50;;;1.40;;
10277;SDS011;5184;51.376;7.148;2024-02-26T02:28:16;1.47;;;1.30;;
10277;SDS011;5184;51.376;7.148;2024-02-26T02:30:43;1.20;;;1.10;;
10277;SDS011;5184;51.376;7.148;2024-02-26T02:33:09;2.53;;;1.30;;
10277;SDS011;5184;51.376;7.148;2024-02-26T02:35:36;1.40;;;1.30;;
10277;SDS011;5184;51.376;7.148;2024-02-26T02:38:03;1.57;;;1.43;;
10277;SDS011;5184;51.376;7.148;2024-02-26T02:40:29;3.00;;;1.43;;
10277;SDS011;5184;51.376;7.148;2024-02-26T02:42:56;2.30;;;1.80;;
10277;SDS011;5184;51.376;7.148;2024-02-26T02:45:23;1.27;;;1.17;;
10277;SDS011;5184;51.376;7.148;2024-02-26T02:47:49;2.20;;;1.60;;
10277;SDS011;5184;51.376;7.148;2024-02-26T02:50:16;1.40;;;1.30;;
10277;SDS011;5184;51.376;7.148;2024-02-26T02:52:43;1.67;;;1.20;;
10277;SDS011;5184;51.376;7.148;2024-02-26T02:55:10;3.17;;;1.37;;
10277;SDS011;5184;51.376;7.148;2024-02-26T02:57:37;1.77;;;1.20;;
10277;SDS011;5184;51.376;7.148;2024-02-26T03:00:04;1.60;;;1.43;;
10277;SDS011;5184;51.376;7.148;2024-02-26T03:02:31;2.60;;;1.60;;
10277;SDS011;5184;51.376;7.148;2024-02-26T03:04:58;1.50;;;1.40;;
10277;SDS011;5184;51.376;7.148;2024-02-26T03:07:26;1.63;;;1.50;;
10277;SDS011;5184;51.376;7.148;2024-02-26T03:09:53;2.30;;;1.30;;
10277;SDS011;5184;51.376;7.148;2024-02-26T03:12:21;1.57;;;1.47;;
10277;SDS011;5184;51.376;7.148;2024-02-26T03:14:48;2.67;;;1.50;;
10277;SDS011;5184;51.376;7.148;2024-02-26T03:17:15;2.03;;;1.60;;
10277;SDS011;5184;51.376;7.148;2024-02-26T03:19:43;1.57;;;1.47;;
10277;SDS011;5184;51.376;7.148;2024-02-26T03:22:11;2.03;;;1.60;;
10277;SDS011;5184;51.376;7.148;2024-02-26T03:24:38;1.73;;;1.63;;
10277;SDS011;5184;51.376;7.148;2024-02-26T03:27:05;1.43;;;1.33;;
10277;SDS011;5184;51.376;7.148;2024-02-26T03:29:33;3.03;;;1.63;;
10277;SDS011;5184;51.376;7.148;2024-02-26T03:32:00;3.10;;;1.90;;
10277;SDS011;5184;51.376;7.148;2024-02-26T03:34:28;2.40;;;2.10;;
10277;SDS011;5184;51.376;7.148;2024-02-26T03:36:55;2.90;;;1.90;;
10277;SDS011;5184;51.376;7.148;2024-02-26T03:39:22;3.90;;;2.20;;
10277;SDS011;5184;51.376;7.148;2024-02-26T03:41:50;2.53;;;2.00;;
10277;SDS011;5184;51.376;7.148;2024-02-26T03:44:16;2.27;;;2.00;;
10277;SDS011;5184;51.376;7.148;2024-02-26T03:46:43;3.50;;;1.87;;
10277;SDS011;5184;51.376;7.148;2024-02-26T03:49:10;3.63;;;2.20;;
10277;SDS011;5184;51.376;7.148;2024-02-26T03:51:36;2.63;;;2.23;;
10277;SDS011;5184;51.376;7.148;2024-02-26T03:54:03;2.93;;;2.40;;
10277;SDS011;5184;51.376;7.148;2024-02-26T03:56:29;3.13;;;2.63;;
10277;SDS011;5184;51.376;7.148;2024-02-26T03:58:56;3.60;;;2.50;;
10277;SDS011;5184;51.376;7.148;2024-02-26T04:01:23;3.80;;;2.57;;
10277;SDS011;5184;51.376;7.148;2024-02-26T04:03:49;3.63;;;2.50;;
10277;SDS011;5184;51.376;7.148;2024-02-26T04:06:16;4.23;;;2.90;;
10277;SDS011;5184;51.376;7.148;2024-02-26T04:08:43;2.63;;;2.43;;
10277;SDS011;5184;51.376;7.148;2024-02-26T04:11:09;2.80;;;2.47;;
10277;SDS011;5184;51.376;7.148;2024-02-26T04:13:36;3.27;;;2.97;;
10277;SDS011;5184;51.376;7.148;2024-02-26T04:16:04;2.50;;;2.30;;
10277;SDS011;5184;51.376;7.148;2024-02-26T04:18:31;3.10;;;2.80;;
10277;SDS011;5184;51.376;7.148;2024-02-26T04:20:58;3.90;;;2.40;;
10277;SDS011;5184;51.376;7.148;2024-02-26T04:23:26;4.00;;;2.50;;
10277;SDS011;5184;51.376;7.148;2024-02-26T04:25:52;2.97;;;2.50;;
10277;SDS011;5184;51.376;7.148;2024-02-26T04:28:19;3.83;;;2.87;;
10277;SDS011;5184;51.376;7.148;2024-02-26T04:30:47;2.87;;;2.50;;
10277;SDS011;5184;51.376;7.148;2024-02-26T04:33:13;3.37;;;2.67;;
10277;SDS011;5184;51.376;7.148;2024-02-26T04:35:40;3.30;;;2.40;;
10277;SDS011;5184;51.376;7.148;2024-02-26T04:38:08;3.20;;;2.63;;
10277;SDS011;5184;51.376;7.148;2024-02-26T04:40:35;2.60;;;2.40;;
10277;SDS011;5184;51.376;7.148;2024-02-26T04:43:02;2.87;;;2.63;;
10277;SDS011;5184;51.376;7.148;2024-02-26T04:45:29;3.03;;;2.57;;
10277;SDS011;5184;51.376;7.148;2024-02-26T04:47:56;3.80;;;2.93;;
10277;SDS011;5184;51.376;7.148;2024-02-26T04:50:24;3.70;;;2.80;;
10277;SDS011;5184;51.376;7.148;2024-02-26T04:52:51;3.10;;;2.33;;
10277;SDS011;5184;51.376;7.148;2024-02-26T04:55:18;3.10;;;2.60;;
10277;SDS011;5184;51.376;7.148;2024-02-26T04:57:46;3.00;;;2.60;;
10277;SDS011;5184;51.376;7.148;2024-02-26T05:00:13;2.90;;;2.60;;
10277;SDS011;5184;51.376;7.148;2024-02-26T05:02:40;3.70;;;2.87;;
10277;SDS011;5184;51.376;7.148;2024-02-26T05:05:07;3.10;;;2.67;;
10277;SDS011;5184;51.376;7.148;2024-02-26T05:07:39;3.07;;;2.70;;
10277;SDS011;5184;51.376;7.148;2024-02-26T05:10:01;4.23;;;2.90;;
10277;SDS011;5184;51.376;7.148;2024-02-26T05:12:27;3.83;;;2.97;;
10277;SDS011;5184;51.376;7.148;2024-02-26T05:14:54;3.53;;;2.90;;
10277;SDS011;5184;51.376;7.148;2024-02-26T05:17:21;3.30;;;3.00;;
10277;SDS011;5184;51.376;7.148;2024-02-26T05:19:49;3.20;;;2.90;;
10277;SDS011;5184;51.376;7.148;2024-02-26T05:22:16;3.53;;;3.10;;
10277;SDS011;5184;51.376;7.148;2024-02-26T05:24:43;5.23;;;3.20;;
10277;SDS011;5184;51.376;7.148;2024-02-26T05:27:11;3.00;;;2.70;;
10277;SDS011;5184;51.376;7.148;2024-02-26T05:29:38;4.73;;;2.97;;
10277;SDS011;5184;51.376;7.148;2024-02-26T05:32:05;4.47;;;3.20;;
10277;SDS011;5184;51.376;7.148;2024-02-26T05:34:34;3.90;;;3.13;;
10277;SDS011;5184;51.376;7.148;2024-02-26T05:37:01;3.10;;;2.80;;
10277;SDS011;5184;51.376;7.148;2024-02-26T05:39:28;3.20;;;2.90;;
10277;SDS011;5184;51.376;7.148;2024-02-26T05:41:54;3.13;;;2.87;;
10277;SDS011;5184;51.376;7.148;2024-02-26T05:44:22;3.67;;;2.87;;
10277;SDS011;5184;51.376;7.148;2024-02-26T05:46:48;3.20;;;2.90;;
10277;SDS011;5184;51.376;7.148;2024-02-26T05:49:16;2.87;;;2.67;;
10277;SDS011;5184;51.376;7.148;2024-02-26T05:51:43;3.17;;;2.87;;
10277;SDS011;5184;51.376;7.148;2024-02-26T05:54:10;3.23;;;2.90;;
10277;SDS011;5184;51.376;7.148;2024-02-26T05:56:38;3.80;;;3.40;;
10277;SDS011;5184;51.376;7.148;2024-02-26T05:59:04;3.07;;;2.77;;
10277;SDS011;5184;51.376;7.148;2024-02-26T06:01:31;3.43;;;3.13;;
10277;SDS011;5184;51.376;7.148;2024-02-26T06:03:57;3.67;;;3.17;;
10277;SDS011;5184;51.376;7.148;2024-02-26T06:06:24;4.67;;;3.20;;
10277;SDS011;5184;51.376;7.148;2024-02-26T06:08:51;4.33;;;3.20;;
10277;SDS011;5184;51.376;7.148;2024-02-26T06:11:17;3.80;;;3.40;;
10277;SDS011;5184;51.376;7.148;2024-02-26T06:13:44;4.40;;;2.97;;
10277;SDS011;5184;51.376;7.148;2024-02-26T06:16:11;4.80;;;3.30;;
10277;SDS011;5184;51.376;7.148;2024-02-26T06:18:39;4.03;;;3.60;;
10277;SDS011;5184;51.376;7.148;2024-02-26T06:21:08;4.07;;;3.47;;
10277;SDS011;5184;51.376;7.148;2024-02-26T06:23:33;5.00;;;3.50;;
10277;SDS011;5184;51.376;7.148;2024-02-26T06:26:01;4.47;;;3.30;;
10277;SDS011;5184;51.376;7.148;2024-02-26T06:28:28;5.17;;;3.57;;
10277;SDS011;5184;51.376;7.148;2024-02-26T06:30:55;3.17;;;2.93;;
10277;SDS011;5184;51.376;7.148;2024-02-26T06:33:23;4.27;;;2.87;;
10277;SDS011;5184;51.376;7.148;2024-02-26T06:35:50;4.53;;;3.37;;
10277;SDS011;5184;51.376;7.148;2024-02-26T06:38:17;4.33;;;3.37;;
10277;SDS011;5184;51.376;7.148;2024-02-26T06:40:45;3.70;;;3.40;;
10277;SDS011;5184;51.376;7.148;2024-02-26T06:43:11;6.47;;;3.80;;
10277;SDS011;5184;51.376;7.148;2024-02-26T06:45:38;3.57;;;3.10;;
10277;SDS011;5184;51.376;7.148;2024-02-26T06:48:05;4.83;;;3.23;;
10277;SDS011;5184;51.376;7.148;2024-02-26T06:50:32;3.60;;;3.17;;
10277;SDS011;5184;51.376;7.148;2024-02-26T06:52:58;3.77;;;3.40;;
10277;SDS011;5184;51.376;7.148;2024-02-26T06:55:25;5.87;;;3.57;;
10277;SDS011;5184;51.376;7.148;2024-02-26T06:57:53;4.70;;;3.20;;
10277;SDS011;5184;51.376;7.148;2024-02-26T07:00:20;3.37;;;3.07;;
10277;SDS011;5184;51.376;7.148;2024-02-26T07:02:48;3.77;;;3.37;;
10277;SDS011;5184;51.376;7.148;2024-02-26T07:05:15;3.40;;;3.10;;
10277;SDS011;5184;51.376;7.148;2024-02-26T07:07:42;4.60;;;3.40;;
10277;SDS011;5184;51.376;7.148;2024-02-26T07:10:10;3.87;;;3.10;;
10277;SDS011;5184;51.376;7.148;2024-02-26T07:12:36;5.33;;;3.40;;
10277;SDS011;5184;51.376;7.148;2024-02-26T07:15:03;4.73;;;3.10;;
10277;SDS011;5184;51.376;7.148;2024-02-26T07:17:30;4.23;;;3.53;;
10277;SDS011;5184;51.376;7.148;2024-02-26T07:19:57;3.73;;;3.17;;
10277;SDS011;5184;51.376;7.148;2024-02-26T07:22:23;4.73;;;3.13;;
10277;SDS011;5184;51.376;7.148;2024-02-26T07:24:50;4.13;;;3.30;;
10277;SDS011;5184;51.376;7.148;2024-02-26T07:27:18;3.83;;;3.23;;
10277;SDS011;5184;51.376;7.148;2024-02-26T07:29:44;4.20;;;3.37;;
10277;SDS011;5184;51.376;7.148;2024-02-26T07:32:11;3.60;;;3.30;;
10277;SDS011;5184;51.376;7.148;2024-02-26T07:34:39;3.77;;;3.00;;
10277;SDS011;5184;51.376;7.148;2024-02-26T07:37:05;4.60;;;3.27;;
10277;SDS011;5184;51.376;7.148;2024-02-26T07:39:32;3.90;;;3.23;;
10277;SDS011;5184;51.376;7.148;2024-02-26T07:41:58;4.53;;;3.47;;
10277;SDS011;5184;51.376;7.148;2024-02-26T07:44:25;3.77;;;3.47;;
10277;SDS011;5184;51.376;7.148;2024-02-26T07:46:52;4.07;;;3.67;;
10277;SDS011;5184;51.376;7.148;2024-02-26T07:49:19;3.40;;;3.10;;
10277;SDS011;5184;51.376;7.148;2024-02-26T07:51:45;5.17;;;3.40;;
10277;SDS011;5184;51.376;7.148;2024-02-26T07:54:12;4.27;;;3.70;;
10277;SDS011;5184;51.376;7.148;2024-02-26T07:56:39;4.03;;;3.23;;
10277;SDS011;5184;51.376;7.148;2024-02-26T07:59:07;5.07;;;3.60;;
10277;SDS011;5184;51.376;7.148;2024-02-26T08:01:34;5.17;;;3.90;;
10277;SDS011;5184;51.376;7.148;2024-02-26T08:04:01;5.30;;;3.60;;
10277;SDS011;5184;51.376;7.148;2024-02-26T08:06:29;4.57;;;3.87;;
10277;SDS011;5184;51.376;7.148;2024-02-26T08:08:56;6.17;;;3.70;;
10277;SDS011;5184;51.376;7.148;2024-02-26T08:11:24;5.90;;;3.73;;
10277;SDS011;5184;51.376;7.148;2024-02-26T08:13:51;4.27;;;3.73;;
10277;SDS011;5184;51.376;7.148;2024-02-26T08:16:18;4.57;;;3.77;;
10277;SDS011;5184;51.376;7.148;2024-02-26T08:18:46;5.33;;;4.10;;
10277;SDS011;5184;51.376;7.148;2024-02-26T08:21:13;4.53;;;4.00;;
10277;SDS011;5184;51.376;7.148;2024-02-26T08:23:40;4.97;;;4.20;;
10277;SDS011;5184;51.376;7.148;2024-02-26T08:26:06;7.50;;;4.00;;
10277;SDS011;5184;51.376;7.148;2024-02-26T08:28:33;5.27;;;3.83;;
10277;SDS011;5184;51.376;7.148;2024-02-26T08:30:59;5.40;;;3.80;;
10277;SDS011;5184;51.376;7.148;2024-02-26T08:33:26;5.23;;;3.87;;
10277;SDS011;5184;51.376;7.148;2024-02-26T08:35:53;5.40;;;4.17;;
10277;SDS011;5184;51.376;7.148;2024-02-26T08:38:19;5.77;;;4.20;;
10277;SDS011;5184;51.376;7.148;2024-02-26T08:40:47;4.20;;;3.80;;
10277;SDS011;5184;51.376;7.148;2024-02-26T08:43:14;4.90;;;4.13;;
10277;SDS011;5184;51.376;7.148;2024-02-26T08:45:41;5.70;;;3.90;;
10277;SDS011;5184;51.376;7.148;2024-02-26T08:48:09;5.50;;;4.03;;
10277;SDS011;5184;51.376;7.148;2024-02-26T08:50:36;6.23;;;4.57;;
10277;SDS011;5184;51.376;7.148;2024-02-26T08:53:03;5.70;;;4.47;;
10277;SDS011;5184;51.376;7.148;2024-02-26T08:55:30;6.33;;;4.87;;
10277;SDS011;5184;51.376;7.148;2024-02-26T08:57:56;6.47;;;5.00;;
10277;SDS011;5184;51.376;7.148;2024-02-26T09:00:23;6.33;;;4.60;;
10277;SDS011;5184;51.376;7.148;2024-02-26T09:02:50;6.30;;;4.70;;
10277;SDS011;5184;51.376;7.148;2024-02-26T09:05:17;5.67;;;4.57;;
10277;SDS011;5184;51.376;7.148;2024-02-26T09:07:44;7.17;;;4.87;;
10277;SDS011;5184;51.376;7.148;2024-02-26T09:10:12;6.10;;;4.43;;
10277;SDS011;5184;51.376;7.148;2024-02-26T09:12:39;6.30;;;4.47;;
10277;SDS011;5184;51.376;7.148;2024-02-26T09:15:07;6.43;;;4.50;;
10277;SDS011;5184;51.376;7.148;2024-02-26T09:17:33;5.43;;;4.43;;
10277;SDS011;5184;51.376;7.148;2024-02-26T09:20:00;5.33;;;4.33;;
10277;SDS011;5184;51.376;7.148;2024-02-26T09:22:26;4.80;;;4.20;;
10277;SDS011;5184;51.376;7.148;2024-02-26T09:24:53;6.37;;;4.77;;
10277;SDS011;5184;51.376;7.148;2024-02-26T09:27:20;7.17;;;4.20;;
10277;SDS011;5184;51.376;7.148;2024-02-26T09:29:46;4.87;;;4.27;;
10277;SDS011;5184;51.376;7.148;2024-02-26T09:32:13;6.33;;;4.57;;
10277;SDS011;5184;51.376;7.148;2024-02-26T09:34:40;7.07;;;4.57;;
10277;SDS011;5184;51.376;7.148;2024-02-26T09:37:07;7.17;;;4.73;;
10277;SDS011;5184;51.376;7.148;2024-02-26T09:39:34;5.73;;;4.57;;
10277;SDS011;5184;51.376;7.148;2024-02-26T09:42:01;6.67;;;4.30;;
10277;SDS011;5184;51.376;7.148;2024-02-26T09:44:27;6.20;;;4.00;;
10277;SDS011;5184;51.376;7.148;2024-02-26T09:46:55;5.80;;;4.37;;
10277;SDS011;5184;51.376;7.148;2024-02-26T09:49:23;5.20;;;3.70;;
10277;SDS011;5184;51.376;7.148;2024-02-26T09:51:50;5.53;;;4.33;;
10277;SDS011;5184;51.376;7.148;2024-02-26T09:54:17;4.40;;;4.00;;
10277;SDS011;5184;51.376;7.148;2024-02-26T09:56:44;5.93;;;4.13;;
10277;SDS011;5184;51.376;7.148;2024-02-26T09:59:12;5.03;;;4.13;;
10277;SDS011;5184;51.376;7.148;2024-02-26T10:01:37;4.93;;;4.17;;
10277;SDS011;5184;51.376;7.148;2024-02-26T10:04:04;4.57;;;3.83;;
10277;SDS011;5184;51.376;7.148;2024-02-26T10:06:30;4.90;;;3.80;;
10277;SDS011;5184;51.376;7.148;2024-02-26T10:08:57;6.53;;;4.40;;
10277;SDS011;5184;51.376;7.148;2024-02-26T10:11:24;4.73;;;3.87;;
10277;SDS011;5184;51.376;7.148;2024-02-26T10:13:51;5.27;;;4.10;;
10277;SDS011;5184;51.376;7.148;2024-02-26T10:16:18;5.90;;;3.70;;
10277;SDS011;5184;51.376;7.148;2024-02-26T10:18:47;3.80;;;3.30;;
10277;SDS011;5184;51.376;7.148;2024-02-26T10:21:19;5.17;;;4.20;;
10277;SDS011;5184;51.376;7.148;2024-02-26T10:23:44;4.90;;;3.90;;
10277;SDS011;5184;51.376;7.148;2024-02-26T10:26:10;5.70;;;3.87;;
10277;SDS011;5184;51.376;7.148;2024-02-26T10:28:37;5.17;;;4.27;;
10277;SDS011;5184;51.376;7.148;2024-02-26T10:31:05;6.77;;;3.80;;
10277;SDS011;5184;51.376;7.148;2024-02-26T10:33:33;5.27;;;4.00;;
10277;SDS011;5184;51.376;7.148;2024-02-26T10:36:00;4.67;;;3.73;;
10277;SDS011;5184;51.376;7.148;2024-02-26T10:38:27;4.83;;;4.30;;
10277;SDS011;5184;51.376;7.148;2024-02-26T10:40:54;5.30;;;4.27;;
10277;SDS011;5184;51.376;7.148;2024-02-26T10:43:22;6.37;;;4.87;;
10277;SDS011;5184;51.376;7.148;2024-02-26T10:45:49;7.37;;;4.67;;
10277;SDS011;5184;51.376;7.148;2024-02-26T10:48:17;6.23;;;4.40;;
10277;SDS011;5184;51.376;7.148;2024-02-26T10:50:44;5.23;;;4.40;;
10277;SDS011;5184;51.376;7.148;2024-02-26T10:53:15;5.07;;;4.57;;
10277;SDS011;5184;51.376;7.148;2024-02-26T10:55:40;6.47;;;4.70;;
10277;SDS011;5184;51.376;7.148;2024-02-26T10:58:06;5.23;;;4.33;;
10277;SDS011;5184;51.376;7.148;2024-02-26T11:00:34;5.60;;;4.40;;
10277;SDS011;5184;51.376;7.148;2024-02-26T11:03:01;6.00;;;4.30;;
10277;SDS011;5184;51.376;7.148;2024-02-26T11:05:28;5.87;;;4.80;;
10277;SDS011;5184;51.376;7.148;2024-02-26T11:07:56;5.60;;;4.40;;
10277;SDS011;5184;51.376;7.148;2024-02-26T11:10:23;7.90;;;4.73;;
10277;SDS011;5184;51.376;7.148;2024-02-26T11:12:50;7.07;;;4.73;;
10277;SDS011;5184;51.376;7.148;2024-02-26T11:15:18;6.37;;;4.93;;
10277;SDS011;5184;51.376;7.148;2024-02-26T11:17:45;6.77;;;5.33;;
10277;SDS011;5184;51.376;7.148;2024-02-26T11:20:12;6.50;;;5.60;;
10277;SDS011;5184;51.376;7.148;2024-02-26T11:22:38;7.03;;;5.40;;
10277;SDS011;5184;51.376;7.148;2024-02-26T11:25:05;6.80;;;5.70;;
10277;SDS011;5184;51.376;7.148;2024-02-26T11:27:35;7.30;;;5.27;;
10277;SDS011;5184;51.376;7.148;2024-02-26T11:29:59;6.73;;;5.23;;
10277;SDS011;5184;51.376;7.148;2024-02-26T11:32:27;7.73;;;5.30;;
10277;SDS011;5184;51.376;7.148;2024-02-26T11:34:54;7.40;;;5.63;;
10277;SDS011;5184;51.376;7.148;2024-02-26T11:37:21;6.27;;;5.30;;
10277;SDS011;5184;51.376;7.148;2024-02-26T11:39:49;6.80;;;5.33;;
10277;SDS011;5184;51.376;7.148;2024-02-26T11:42:15;8.27;;;5.67;;
10277;SDS011;5184;51.376;7.148;2024-02-26T11:44:42;7.97;;;5.93;;
10277;SDS011;5184;51.376;7.148;2024-02-26T11:47:11;9.33;;;5.73;;
10277;SDS011;5184;51.376;7.148;2024-02-26T11:49:38;8.37;;;5.53;;
10277;SDS011;5184;51.376;7.148;2024-02-26T11:52:05;8.87;;;5.93;;
10277;SDS011;5184;51.376;7.148;2024-02-26T11:57:41;9.50;;;6.00;;
10277;SDS011;5184;51.376;7.148;2024-02-26T11:59:51;8.43;;;5.73;;
10277;SDS011;5184;51.376;7.148;2024-02-26T12:04:56;8.93;;;6.40;;
10277;SDS011;5184;51.376;7.148;2024-02-26T12:07:23;8.77;;;6.17;;
10277;SDS011;5184;51.376;7.148;2024-02-26T12:09:51;8.07;;;6.27;;
10277;SDS011;5184;51.376;7.148;2024-02-26T12:12:18;9.87;;;6.77;;
10277;SDS011;5184;51.376;7.148;2024-02-26T12:14:51;9.20;;;6.70;;
10277;SDS011;5184;51.376;7.148;2024-02-26T12:17:19;10.20;;;6.57;;
10277;SDS011;5184;51.376;7.148;2024-02-26T12:19:45;8.73;;;6.73;;
10277;SDS011;5184;51.376;7.148;2024-02-26T12:22:13;7.17;;;6.03;;
10277;SDS011;5184;51.376;7.148;2024-02-26T12:24:39;9.87;;;6.53;;
10277;SDS011;5184;51.376;7.148;2024-02-26T12:27:06;6.97;;;6.20;;
10277;SDS011;5184;51.376;7.148;2024-02-26T12:29:32;7.57;;;5.53;;
10277;SDS011;5184;51.376;7.148;2024-02-26T12:31:59;6.73;;;4.73;;
10277;SDS011;5184;51.376;7.148;2024-02-26T12:34:26;6.53;;;5.27;;
10277;SDS011;5184;51.376;7.148;2024-02-26T12:36:53;7.03;;;5.27;;
10277;SDS011;5184;51.376;7.148;2024-02-26T12:39:20;8.77;;;5.70;;
10277;SDS011;5184;51.376;7.148;2024-02-26T12:41:47;8.30;;;5.83;;
10277;SDS011;5184;51.376;7.148;2024-02-26T12:44:16;6.17;;;5.37;;
10277;SDS011;5184;51.376;7.148;2024-02-26T12:46:43;8.47;;;5.83;;
10277;SDS011;5184;51.376;7.148;2024-02-26T12:49:14;7.00;;;5.60;;
10277;SDS011;5184;51.376;7.148;2024-02-26T12:51:44;7.90;;;5.77;;
10277;SDS011;5184;51.376;7.148;2024-02-26T12:54:11;8.13;;;6.50;;
10277;SDS011;5184;51.376;7.148;2024-02-26T12:56:38;7.73;;;5.47;;
10277;SDS011;5184;51.376;7.148;2024-02-26T12:59:05;7.97;;;5.90;;
10277;SDS011;5184;51.376;7.148;2024-02-26T13:01:31;7.90;;;6.13;;
10277;SDS011;5184;51.376;7.148;2024-02-26T13:03:58;9.07;;;6.53;;
10277;SDS011;5184;51.376;7.148;2024-02-26T13:06:25;6.80;;;5.77;;
10277;SDS011;5184;51.376;7.148;2024-02-26T13:08:56;7.73;;;5.90;;
10277;SDS011;5184;51.376;7.148;2024-02-26T13:11:20;6.47;;;5.73;;
10277;SDS011;5184;51.376;7.148;2024-02-26T13:13:48;9.47;;;6.60;;
10277;SDS011;5184;51.376;7.148;2024-02-26T13:16:15;7.87;;;6.03;;
10277;SDS011;5184;51.376;7.148;2024-02-26T13:18:42;8.40;;;6.10;;
10277;SDS011;5184;51.376;7.148;2024-02-26T13:21:09;7.77;;;6.50;;
10277;SDS011;5184;51.376;7.148;2024-02-26T13:23:37;6.70;;;6.00;;
10277;SDS011;5184;51.376;7.148;2024-02-26T13:26:04;7.70;;;5.47;;
10277;SDS011;5184;51.376;7.148;2024-02-26T13:28:32;6.63;;;5.60;;
10277;SDS011;5184;51.376;7.148;2024-02-26T13:30:59;6.77;;;5.57;;
10277;SDS011;5184;51.376;7.148;2024-02-26T13:33:27;7.70;;;5.90;;
10277;SDS011;5184;51.376;7.148;2024-02-26T13:35:55;6.60;;;5.63;;
10277;SDS011;5184;51.376;7.148;2024-02-26T13:38:21;6.73;;;5.20;;
10277;SDS011;5184;51.376;7.148;2024-02-26T13:40:49;8.13;;;5.60;;
10277;SDS011;5184;51.376;7.148;2024-02-26T13:43:16;8.03;;;5.30;;
10277;SDS011;5184;51.376;7.148;2024-02-26T13:45:42;6.70;;;5.30;;
10277;SDS011;5184;51.376;7.148;2024-02-26T13:48:10;6.73;;;5.83;;
10277;SDS011;5184;51.376;7.148;2024-02-26T13:50:38;6.13;;;4.97;;
10277;SDS011;5184;51.376;7.148;2024-02-26T13:53:05;5.87;;;5.23;;
10277;SDS011;5184;51.376;7.148;2024-02-26T13:55:32;5.77;;;4.73;;
10277;SDS011;5184;51.376;7.148;2024-02-26T13:57:59;6.27;;;4.90;;
10277;SDS011;5184;51.376;7.148;2024-02-26T14:00:27;7.83;;;4.83;;
10277;SDS011;5184;51.376;7.148;2024-02-26T14:02:53;6.60;;;5.37;;
10277;SDS011;5184;51.376;7.148;2024-02-26T14:05:20;6.53;;;5.60;;
10277;SDS011;5184;51.376;7.148;2024-02-26T14:07:46;5.63;;;4.97;;
10277;SDS011;5184;51.376;7.148;2024-02-26T14:10:13;5.30;;;4.10;;
10277;SDS011;5184;51.376;7.148;2024-02-26T14:12:40;6.40;;;5.13;;
10277;SDS011;5184;51.376;7.148;2024-02-26T14:15:06;6.53;;;4.97;;
10277;SDS011;5184;51.376;7.148;2024-02-26T14:17:33;7.03;;;5.00;;
10277;SDS011;5184;51.376;7.148;2024-02-26T14:20:00;6.05;;;4.60;;
10277;SDS011;5184;51.376;7.148;2024-02-26T14:22:27;5.37;;;4.87;;
10277;SDS011;5184;51.376;7.148;2024-02-26T14:24:55;9.90;;;5.27;;
10277;SDS011;5184;51.376;7.148;2024-02-26T14:27:22;5.63;;;4.90;;
10277;SDS011;5184;51.376;7.148;2024-02-26T14:29:49;5.73;;;4.63;;
10277;SDS011;5184;51.376;7.148;2024-02-26T14:32:16;7.90;;;5.20;;
10277;SDS011;5184;51.376;7.148;2024-02-26T14:34:42;6.73;;;5.10;;
10277;SDS011;5184;51.376;7.148;2024-02-26T14:37:09;6.37;;;4.63;;
10277;SDS011;5184;51.376;7.148;2024-02-26T14:39:37;6.03;;;5.03;;
10277;SDS011;5184;51.376;7.148;2024-02-26T14:42:02;6.80;;;5.30;;
10277;SDS011;5184;51.376;7.148;2024-02-26T14:44:29;6.50;;;5.10;;
10277;SDS011;5184;51.376;7.148;2024-02-26T14:46:56;7.10;;;5.00;;
10277;SDS011;5184;51.376;7.148;2024-02-26T14:49:22;5.33;;;4.67;;
10277;SDS011;5184;51.376;7.148;2024-02-26T14:51:49;6.23;;;5.17;;
10277;SDS011;5184;51.376;7.148;2024-02-26T14:54:15;7.60;;;5.10;;
10277;SDS011;5184;51.376;7.148;2024-02-26T14:56:42;5.93;;;5.33;;
10277;SDS011;5184;51.376;7.148;2024-02-26T14:59:09;6.37;;;5.27;;
10277;SDS011;5184;51.376;7.148;2024-02-26T15:01:36;7.60;;;4.90;;
10277;SDS011;5184;51.376;7.148;2024-02-26T15:04:03;7.07;;;5.40;;